Time;durP1;ratioP1;P1;durP2;ratioP2;P2;SDS_P1;SDS_P2;PMS_P1;PMS_P2;Temp;Humidity;BMP_temperature;BMP_pressure;BME280_temperature;BME280_humidity;BME280_pressure;Samples;Min_cycle;Max_cycle;Signal;HPM_P1;HPM_P2
2021/07/18 00:01:54;;;;;;;;;;;;;;;15.80;87.25;100295.03;5133703;27;19927;-72
2021/07/18 00:04:22;;;;;;;;;;;;;;;15.82;86.92;100287.84;5133911;27;20428;-72
2021/07/18 00:06:49;;;;;;;;;;;;;;;15.83;87.33;100288.72;5133842;27;20018;-73
2021/07/18 00:09:16;;;;;;;;;;;;;;;15.81;87.31;100282.75;5133838;27;19925;-72
2021/07/18 00:11:42;;;;;;;;;;;;;;;15.78;87.48;100283.84;5133255;27;20440;-72
2021/07/18 00:14:09;;;;;;;;;;;;;;;15.66;87.45;100280.41;5133756;28;19923;-72
2021/07/18 00:16:36;;;;;;;;;;;;;;;15.66;87.36;100276.97;5133171;28;20286;-72
2021/07/18 00:19:03;;;;;;;;;;;;;;;15.59;87.19;100273.19;5133843;28;19930;-72
2021/07/18 00:21:31;;;;;;;;;;;;;;;15.61;87.21;100271.28;5133213;28;20422;-72
2021/07/18 00:23:57;;;;;;;;;;;;;;;15.55;86.96;100271.81;5133297;28;20010;-71
2021/07/18 00:26:24;;;;;;;;;;;;;;;15.62;86.69;100265.91;5133341;28;19930;-73
2021/07/18 00:28:51;;;;;;;;;;;;;;;15.68;86.41;100275.06;5133805;28;19930;-72
2021/07/18 00:31:18;;;;;;;;;;;;;;;15.82;86.08;100274.75;5133312;28;20018;-72
2021/07/18 00:33:45;;;;;;;;;;;;;;;15.73;86.31;100275.53;5133403;28;19927;-72
2021/07/18 00:36:11;;;;;;;;;;;;;;;15.60;86.58;100265.22;5133501;28;20019;-72
2021/07/18 00:38:39;;;;;;;;;;;;;;;15.46;87.56;100270.75;5133380;28;19958;-72
2021/07/18 00:41:06;;;;;;;;;;;;;;;15.60;86.80;100265.22;5133299;28;19927;-72
2021/07/18 00:43:33;;;;;;;;;;;;;;;15.73;86.32;100267.66;5134513;27;19931;-72
2021/07/18 00:46:01;;;;;;;;;;;;;;;15.74;86.24;100263.25;5137486;27;19923;-73
2021/07/18 00:48:28;;;;;;;;;;;;;;;15.73;86.28;100256.34;5137092;27;20014;-73
2021/07/18 00:50:55;;;;;;;;;;;;;;;15.71;86.33;100253.84;5137259;27;19934;-73
2021/07/18 00:53:22;;;;;;;;;;;;;;;15.74;86.36;100250.97;5136918;27;20014;-72
2021/07/18 00:55:51;;;;;;;;;;;;;;;15.72;86.53;100239.78;5136915;27;20014;-72
2021/07/18 00:58:18;;;;;;;;;;;;;;;15.55;87.19;100227.22;5136848;27;19930;-72
2021/07/18 01:00:44;;;;;;;;;;;;;;;15.49;87.20;100218.09;5137113;27;19970;-72
2021/07/18 01:03:11;;;;;;;;;;;;;;;15.49;86.82;100206.75;5137310;27;19923;-73
2021/07/18 01:05:38;;;;;;;;;;;;;;;15.50;86.81;100209.25;5136710;27;19923;-72
2021/07/18 01:08:05;;;;;;;;;;;;;;;15.29;87.63;100209.28;5136924;27;20381;-72
2021/07/18 01:10:31;;;;;;;;;;;;;;;15.32;87.57;100203.78;5136825;27;19930;-72
2021/07/18 01:12:59;;;;;;;;;;;;;;;15.36;86.91;100196.47;5136778;27;19923;-72
2021/07/18 01:15:26;;;;;;;;;;;;;;;15.22;87.61;100200.25;5136586;27;19931;-72
2021/07/18 01:17:53;;;;;;;;;;;;;;;15.28;87.24;100181.38;5136884;27;20014;-72
2021/07/18 01:20:19;;;;;;;;;;;;;;;15.27;86.84;100182.34;5136912;27;19924;-72
2021/07/18 01:22:48;;;;;;;;;;;;;;;15.36;86.98;100175.50;5136609;27;19963;-72
2021/07/18 01:25:15;;;;;;;;;;;;;;;15.42;86.21;100165.34;5136973;27;19967;-73
2021/07/18 01:27:43;;;;;;;;;;;;;;;15.40;85.87;100158.56;5136764;27;20011;-72
2021/07/18 01:30:11;;;;;;;;;;;;;;;15.31;86.01;100165.44;5136878;27;19937;-72
2021/07/18 01:32:38;;;;;;;;;;;;;;;15.25;85.80;100155.44;5136060;27;19924;-73
2021/07/18 01:35:06;;;;;;;;;;;;;;;15.27;86.27;100150.91;5136548;27;19929;-72
2021/07/18 01:37:32;;;;;;;;;;;;;;;15.38;85.76;100150.81;5136110;27;19924;-72
2021/07/18 01:40:00;;;;;;;;;;;;;;;15.33;86.34;100149.56;5136269;27;19929;-72
2021/07/18 01:42:27;;;;;;;;;;;;;;;15.51;85.25;100140.13;5136040;27;19934;-72
2021/07/18 01:44:54;;;;;;;;;;;;;;;15.43;85.93;100132.09;5136492;27;19931;-72
2021/07/18 01:47:20;;;;;;;;;;;;;;;15.48;85.46;100136.94;5136355;27;19923;-72
2021/07/18 01:49:47;;;;;;;;;;;;;;;15.56;85.58;100135.31;5135854;27;19946;-72
2021/07/18 01:52:17;;;;;;;;;;;;;;;15.64;85.21;100132.03;5136046;27;20017;-71
2021/07/18 01:54:43;;;;;;;;;;;;;;;15.77;84.55;100118.72;5135168;27;19958;-72
2021/07/18 01:57:14;;;;;;;;;;;;;;;15.66;85.13;100114.38;5135981;27;19929;-72
2021/07/18 01:59:41;;;;;;;;;;;;;;;15.60;85.24;100107.06;5135975;27;19946;-72
2021/07/18 02:02:08;;;;;;;;;;;;;;;15.47;86.04;100094.19;5136113;27;19923;-72
2021/07/18 02:04:35;;;;;;;;;;;;;;;15.45;85.90;100086.44;5135903;27;19988;-72
2021/07/18 02:07:02;;;;;;;;;;;;;;;15.51;85.24;100079.00;5136022;27;20018;-72
2021/07/18 02:09:29;;;;;;;;;;;;;;;15.64;84.00;100063.88;5135733;27;19924;-72
2021/07/18 02:11:55;;;;;;;;;;;;;;;15.56;84.03;100063.72;5135963;27;19923;-72
2021/07/18 02:14:23;;;;;;;;;;;;;;;15.44;84.60;100068.22;5135973;27;19923;-72
2021/07/18 02:16:52;;;;;;;;;;;;;;;15.44;84.59;100057.75;5135570;27;19931;-72
2021/07/18 02:19:18;;;;;;;;;;;;;;;15.20;85.42;100055.44;5135553;27;19970;-72
2021/07/18 02:21:45;;;;;;;;;;;;;;;15.47;83.64;100041.75;5135500;27;19934;-72
2021/07/18 02:24:12;;;;;;;;;;;;;;;15.40;84.28;100051.91;5135810;27;20102;-72
2021/07/18 02:26:39;;;;;;;;;;;;;;;15.54;83.74;100039.41;5135191;27;20022;-72
2021/07/18 02:29:05;;;;;;;;;;;;;;;15.41;84.70;100034.41;5135790;27;19924;-72
2021/07/18 02:31:34;;;;;;;;;;;;;;;15.27;84.94;100021.69;5135363;27;20006;-72
2021/07/18 02:34:00;;;;;;;;;;;;;;;15.18;85.72;100007.56;5135331;27;20379;-72
2021/07/18 02:36:27;;;;;;;;;;;;;;;15.25;85.03;100008.69;5135132;27;20027;-72
2021/07/18 02:38:54;;;;;;;;;;;;;;;15.33;84.29;99993.13;5135293;27;19970;-72
2021/07/18 02:41:21;;;;;;;;;;;;;;;15.34;83.35;99986.94;5135464;27;19928;-72
2021/07/18 02:43:48;;;;;;;;;;;;;;;15.10;84.76;99986.44;5135140;27;19923;-73
2021/07/18 02:46:15;;;;;;;;;;;;;;;15.39;83.05;99979.50;5135218;27;19973;-72
2021/07/18 02:48:43;;;;;;;;;;;;;;;15.37;83.11;99973.56;5134792;27;20029;-72
2021/07/18 02:51:09;;;;;;;;;;;;;;;15.40;83.10;99973.28;5135026;27;20357;-72
2021/07/18 02:53:36;;;;;;;;;;;;;;;15.30;83.56;99982.09;5134233;27;19923;-72
2021/07/18 02:56:02;;;;;;;;;;;;;;;15.24;83.51;99967.75;5135232;27;19929;-72
2021/07/18 02:58:29;;;;;;;;;;;;;;;15.14;84.44;99962.47;5134915;27;19924;-72
2021/07/18 03:00:56;;;;;;;;;;;;;;;15.26;84.06;99955.34;5134997;27;20349;-72
2021/07/18 03:03:22;;;;;;;;;;;;;;;15.52;82.42;99939.94;5137541;27;19931;-72
2021/07/18 03:05:50;;;;;;;;;;;;;;;15.44;82.60;99937.16;5140716;27;20345;-72
2021/07/18 03:08:17;;;;;;;;;;;;;;;15.34;83.52;99918.81;5143268;27;19930;-72
2021/07/18 03:10:43;;;;;;;;;;;;;;;15.28;83.06;99918.50;5138724;27;19923;-73
2021/07/18 03:13:10;;;;;;;;;;;;;;;15.20;83.74;99908.69;5134790;27;19923;-72
2021/07/18 03:15:37;;;;;;;;;;;;;;;15.25;83.40;99907.31;5134537;27;20345;-73
2021/07/18 03:18:06;;;;;;;;;;;;;;;15.18;83.60;99887.03;5134918;27;20046;-72
2021/07/18 03:20:33;;;;;;;;;;;;;;;15.28;83.20;99869.53;5134323;27;19923;-72
2021/07/18 03:23:01;;;;;;;;;;;;;;;15.41;82.46;99857.00;5134857;27;20022;-72
2021/07/18 03:25:28;;;;;;;;;;;;;;;15.41;82.55;99838.66;5134654;27;19923;-71
2021/07/18 03:27:55;;;;;;;;;;;;;;;15.33;82.59;99816.72;5134585;27;20018;-72
2021/07/18 03:30:22;;;;;;;;;;;;;;;15.45;81.16;99818.25;5134374;27;20000;-72
2021/07/18 03:32:49;;;;;;;;;;;;;;;15.28;82.51;99811.88;5133972;27;20369;-71
2021/07/18 03:35:15;;;;;;;;;;;;;;;15.48;81.10;99807.47;5134431;27;19923;-71
2021/07/18 03:37:42;;;;;;;;;;;;;;;15.51;80.91;99799.31;5134285;27;19930;-72
2021/07/18 03:40:11;;;;;;;;;;;;;;;15.28;82.55;99792.72;5134430;27;19959;-71
2021/07/18 03:42:38;;;;;;;;;;;;;;;15.16;83.42;99781.56;5134019;27;19927;-72
2021/07/18 03:45:05;;;;;;;;;;;;;;;15.42;82.13;99784.44;5134208;27;20014;-71
2021/07/18 03:47:32;;;;;;;;;;;;;;;15.23;82.24;99774.78;5133571;27;19966;-71
2021/07/18 03:49:59;;;;;;;;;;;;;;;15.35;82.20;99760.56;5134188;27;19965;-71
2021/07/18 03:52:25;;;;;;;;;;;;;;;15.46;81.36;99759.59;5133514;27;20023;-71
2021/07/18 03:54:52;;;;;;;;;;;;;;;15.37;82.13;99749.97;5133673;27;19930;-71
2021/07/18 03:57:20;;;;;;;;;;;;;;;15.38;81.88;99746.38;5134076;27;19924;-71
2021/07/18 03:59:47;;;;;;;;;;;;;;;15.38;82.12;99733.25;5133784;27;19923;-71
2021/07/18 04:02:13;;;;;;;;;;;;;;;15.43;82.48;99726.63;5133964;27;19973;-71
2021/07/18 04:04:40;;;;;;;;;;;;;;;15.36;82.76;99711.59;5133629;27;20361;-71
2021/07/18 04:07:07;;;;;;;;;;;;;;;15.29;83.48;99703.50;5133958;27;19963;-71
2021/07/18 04:09:33;;;;;;;;;;;;;;;15.47;81.81;99698.34;5133665;27;19924;-71
2021/07/18 04:12:00;;;;;;;;;;;;;;;15.45;81.69;99701.09;5133455;27;19973;-71
2021/07/18 04:14:29;;;;;;;;;;;;;;;15.08;91.60;99711.50;5133513;27;19924;-71
2021/07/18 04:16:56;;;;;;;;;;;;;;;14.39;96.60;99707.13;5133402;28;20363;-72
2021/07/18 04:19:22;;;;;;;;;;;;;;;-145.93;100.00;63033.56;5132968;27;19930;-72
2021/07/18 04:21:49;;;;;;;;;;;;;;;-145.93;100.00;63033.56;5133627;28;19935;-72
2021/07/18 04:24:15;;;;;;;;;;;;;;;-145.93;100.00;63033.56;5133484;28;19935;-72
2021/07/18 04:26:42;;;;;;;;;;;;;;;14.42;95.93;99670.22;5133494;28;20006;-72
2021/07/18 04:29:09;;;;;;;;;;;;;;;14.37;96.54;99660.16;5133731;28;20056;-72
2021/07/18 04:31:37;;;;;;;;;;;;;;;14.43;95.10;99666.63;5133553;28;20022;-72
2021/07/18 04:34:03;;;;;;;;;;;;;;;14.42;94.58;99656.31;5133737;28;19960;-72
2021/07/18 04:36:30;;;;;;;;;;;;;;;14.44;95.17;99629.06;5132980;28;20014;-72
2021/07/18 04:38:58;;;;;;;;;;;;;;;14.52;94.01;99628.38;5133682;28;19966;-72
2021/07/18 04:41:24;;;;;;;;;;;;;;;14.63;92.90;99653.63;5133383;28;20014;-72
2021/07/18 04:43:51;;;;;;;;;;;;;;;14.39;95.89;99644.34;5133266;28;20014;-72
2021/07/18 04:47:16;;;;;;;;;;;;;;;-145.93;100.00;63033.56;5133237;28;19977;-72
2021/07/18 04:49:43;;;;;;;;;;;;;;;14.36;100.00;99636.75;5133330;28;19963;-72
2021/07/18 04:52:10;;;;;;;;;;;;;;;14.51;100.00;99660.72;5133247;28;19955;-72
2021/07/18 04:54:36;;;;;;;;;;;;;;;14.48;100.00;99625.19;5132916;28;19974;-72
2021/07/18 04:57:03;;;;;;;;;;;;;;;14.47;100.00;99638.41;5133491;28;19923;-72
2021/07/18 05:00:28;;;;;;;;;;;;;;;-145.93;100.00;63033.56;5133091;28;19974;-71
2021/07/18 05:03:55;;;;;;;;;;;;;;;-145.93;100.00;63033.56;5133293;28;19971;-72
2021/07/18 05:07:20;;;;;;;;;;;;;;;-145.93;100.00;63033.56;5133090;28;20025;-72
2021/07/18 05:10:45;;;;;;;;;;;;;;;-145.93;100.00;63033.56;5132950;28;20014;-72
2021/07/18 05:14:10;;;;;;;;;;;;;;;-145.93;100.00;63033.56;5133180;28;19923;-72
2021/07/18 05:17:35;;;;;;;;;;;;;;;-145.93;100.00;63033.56;5132733;28;19966;-72
2021/07/18 05:21:02;;;;;;;;;;;;;;;-145.93;100.00;63033.56;5132956;28;19923;-72
2021/07/18 05:24:27;;;;;;;;;;;;;;;-145.93;100.00;63033.56;5132876;28;19927;-72
2021/07/18 05:27:52;;;;;;;;;;;;;;;-145.93;100.00;63033.56;5132997;28;19930;-72
2021/07/18 05:31:17;;;;;;;;;;;;;;;-145.93;100.00;63033.56;5134262;27;19985;-72
2021/07/18 05:34:43;;;;;;;;;;;;;;;-145.93;100.00;63033.56;5136701;27;19953;-72
2021/07/18 05:38:09;;;;;;;;;;;;;;;-145.93;100.00;63033.56;5136784;27;20073;-72
2021/07/18 05:41:34;;;;;;;;;;;;;;;-145.93;100.00;63033.56;5136349;27;19923;-72
2021/07/18 05:44:59;;;;;;;;;;;;;;;-145.93;100.00;63033.56;5136590;27;20010;-72
2021/07/18 05:48:25;;;;;;;;;;;;;;;-145.93;100.00;63033.56;5135858;27;19923;-72
2021/07/18 05:51:50;;;;;;;;;;;;;;;-145.93;100.00;63033.56;5136456;27;19928;-72
2021/07/18 05:55:17;;;;;;;;;;;;;;;-145.93;100.00;63033.56;5135925;27;19924;-71
2021/07/18 05:58:42;;;;;;;;;;;;;;;-145.93;100.00;63033.56;5135700;27;19923;-72
2021/07/18 06:02:07;;;;;;;;;;;;;;;-145.93;100.00;63033.56;5135874;27;20044;-72
2021/07/18 06:05:32;;;;;;;;;;;;;;;-145.93;100.00;63033.56;5135692;27;19970;-71
2021/07/18 06:08:57;;;;;;;;;;;;;;;-145.93;100.00;63033.56;5135749;27;20367;-72
2021/07/18 06:12:24;;;;;;;;;;;;;;;-145.93;100.00;63033.56;5136029;27;19923;-72
2021/07/18 06:15:49;;;;;;;;;;;;;;;-145.93;100.00;63033.56;5135631;27;20035;-72
2021/07/18 06:19:14;;;;;;;;;;;;;;;-145.93;100.00;63033.56;5135576;27;19923;-71
2021/07/18 06:22:39;;;;;;;;;;;;;;;-145.93;100.00;63033.56;5135261;27;20412;-71
2021/07/18 06:26:05;;;;;;;;;;;;;;;-145.93;100.00;63033.56;5135570;27;20389;-72
2021/07/18 06:29:31;;;;;;;;;;;;;;;-145.93;100.00;63033.56;5135506;27;20361;-72
2021/07/18 06:32:56;;;;;;;;;;;;;;;-145.93;100.00;63033.56;5135266;27;20338;-72
2021/07/18 06:36:21;;;;;;;;;;;;;;;-145.93;100.00;63033.56;5135541;27;20266;-72
2021/07/18 06:39:47;;;;;;;;;;;;;;;-145.93;100.00;63033.56;5134946;27;20011;-71
2021/07/18 06:43:12;;;;;;;;;;;;;;;-145.93;100.00;63033.56;5134694;27;20421;-72
2021/07/18 06:46:40;;;;;;;;;;;;;;;-145.93;100.00;63033.56;5134873;27;20289;-71
2021/07/18 06:50:06;;;;;;;;;;;;;;;-145.93;100.00;63033.56;5135368;27;19980;-72
2021/07/18 06:53:31;;;;;;;;;;;;;;;-145.93;100.00;63033.56;5134438;27;20018;-71
2021/07/18 06:56:56;;;;;;;;;;;;;;;-145.93;100.00;63033.56;5135104;27;19959;-72
2021/07/18 07:00:22;;;;;;;;;;;;;;;-145.93;100.00;63033.56;5135154;27;19930;-72
2021/07/18 07:03:49;;;;;;;;;;;;;;;-145.93;100.00;63033.56;5134454;27;20421;-72
2021/07/18 07:07:14;;;;;;;;;;;;;;;-145.93;100.00;63033.56;5134774;27;20010;-72
2021/07/18 07:10:40;;;;;;;;;;;;;;;-145.93;100.00;63033.56;5134685;27;19934;-72
2021/07/18 07:14:06;;;;;;;;;;;;;;;-145.93;100.00;63033.56;5134490;27;19930;-72
2021/07/18 07:17:30;;;;;;;;;;;;;;;-145.93;100.00;63033.56;5134282;27;19978;-72
2021/07/18 07:20:55;;;;;;;;;;;;;;;-145.93;100.00;63033.56;5134434;27;20022;-72
2021/07/18 07:24:19;;;;;;;;;;;;;;;-145.93;100.00;63033.56;5134701;27;19923;-73
2021/07/18 07:26:51;;;;;;;;;;;;;;;-145.93;100.00;63033.56;5134098;27;19927;-72
2021/07/18 07:29:18;;;;;;;;;;;;;;;15.28;99.47;66984.25;5134318;27;19923;-72
2021/07/18 07:31:44;;;;;;;;;;;;;;;15.27;99.55;66983.88;5134146;27;20269;-72
2021/07/18 07:34:11;;;;;;;;;;;;;;;15.28;99.63;66984.88;5134418;27;19966;-72
2021/07/18 07:36:39;;;;;;;;;;;;;;;15.29;99.28;66986.00;5134115;27;19924;-72
2021/07/18 07:39:06;;;;;;;;;;;;;;;15.31;99.20;66988.09;5133974;27;19954;-72
2021/07/18 07:41:32;;;;;;;;;;;;;;;15.33;99.34;66990.91;5134191;27;19923;-72
2021/07/18 07:44:00;;;;;;;;;;;;;;;15.35;98.72;66993.63;5133950;27;19966;-72
2021/07/18 07:46:26;;;;;;;;;;;;;;;15.37;98.13;66995.81;5134185;27;19923;-72
2021/07/18 07:48:54;;;;;;;;;;;;;;;15.37;98.00;66995.91;5134203;27;19967;-72
2021/07/18 07:51:21;;;;;;;;;;;;;;;15.38;98.34;66996.97;5134148;27;19963;-72
2021/07/18 07:53:50;;;;;;;;;;;;;;;15.39;98.31;66998.22;5132910;27;20384;-72
2021/07/18 07:56:17;;;;;;;;;;;;;;;15.43;97.12;67002.09;5133994;27;19923;-72
2021/07/18 07:58:44;;;;;;;;;;;;;;;15.47;94.51;67006.63;5133737;27;20022;-72
2021/07/18 08:01:11;;;;;;;;;;;;;;;15.50;92.59;67010.00;5133660;27;20022;-72
2021/07/18 08:03:37;;;;;;;;;;;;;;;15.53;91.56;67013.78;5133460;27;19954;-72
2021/07/18 08:06:04;;;;;;;;;;;;;;;15.55;91.22;67016.00;5133757;27;20022;-72
2021/07/18 08:08:31;;;;;;;;;;;;;;;15.57;90.68;67018.13;5133463;27;20010;-71
2021/07/18 08:10:59;;;;;;;;;;;;;;;15.56;90.50;67017.44;5134178;27;19923;-71
2021/07/18 08:13:26;;;;;;;;;;;;;;;15.55;90.83;67017.03;5133425;27;19930;-71
2021/07/18 08:15:52;;;;;;;;;;;;;;;15.54;91.40;67015.22;5133465;27;19963;-71
2021/07/18 08:18:19;;;;;;;;;;;;;;;15.53;90.96;67013.81;5133459;28;20018;-72
2021/07/18 08:20:46;;;;;;;;;;;;;;;15.51;91.16;67012.09;5133134;28;19927;-71
2021/07/18 08:23:12;;;;;;;;;;;;;;;15.50;90.89;67011.19;5133506;28;19924;-72
2021/07/18 08:25:39;;;;;;;;;;;;;;;15.48;91.99;67008.97;5133268;28;20021;-72
2021/07/18 08:28:07;;;;;;;;;;;;;;;15.46;91.16;67006.41;5133388;28;19923;-71
2021/07/18 08:30:35;;;;;;;;;;;;;;;15.46;90.11;67006.13;5133019;28;20112;-71
2021/07/18 08:33:02;;;;;;;;;;;;;;;15.46;89.52;67006.13;5133274;28;19924;-71
2021/07/18 08:35:29;;;;;;;;;;;;;;;15.49;86.64;67010.41;5133357;28;20023;-72
2021/07/18 08:37:55;;;;;;;;;;;;;;;15.53;86.57;67015.31;5133306;28;19927;-72
2021/07/18 08:40:22;;;;;;;;;;;;;;;15.55;84.72;67017.16;5133650;28;19924;-72
2021/07/18 08:42:49;;;;;;;;;;;;;;;15.54;86.44;67015.56;5132860;28;20381;-71
2021/07/18 08:45:17;;;;;;;;;;;;;;;15.49;88.59;67010.88;5133265;28;19923;-71
2021/07/18 08:47:44;;;;;;;;;;;;;;;15.44;89.15;67004.56;5133033;28;20411;-72
2021/07/18 08:50:11;;;;;;;;;;;;;;;15.38;89.25;66998.00;5133306;28;19962;-71
2021/07/18 08:52:37;;;;;;;;;;;;;;;15.31;89.42;66990.63;5132932;28;19924;-71
2021/07/18 08:55:05;;;;;;;;;;;;;;;15.25;88.15;66984.47;5132997;28;20028;-72
2021/07/18 08:57:32;;;;;;;;;;;;;;;15.19;89.51;66977.47;5132902;28;19934;-72
2021/07/18 08:59:59;;;;;;;;;;;;;;;15.14;88.73;66971.34;5133401;28;19923;-72
2021/07/18 09:02:27;;;;;;;;;;;;;;;15.08;88.52;66964.75;5133141;28;20287;-71
2021/07/18 09:04:54;;;;;;;;;;;;;;;15.03;89.73;66959.41;5135290;27;19923;-71
2021/07/18 09:07:21;;;;;;;;;;;;;;;14.98;89.58;66953.63;5137298;27;19931;-71
2021/07/18 09:09:49;;;;;;;;;;;;;;;14.96;86.50;66951.13;5136793;27;19970;-71
2021/07/18 09:12:16;;;;;;;;;;;;;;;14.95;83.66;66950.16;5137377;27;20365;-71
2021/07/18 09:14:46;;;;;;;;;;;;;;;14.96;82.99;66951.28;5136785;27;19946;-72
2021/07/18 09:17:14;;;;;;;;;;;;;;;14.98;81.20;66953.84;5137415;27;19923;-72
2021/07/18 09:19:47;;;;;;;;;;;;;;;15.04;78.63;66961.25;5136543;27;20365;-72
2021/07/18 09:22:17;;;;;;;;;;;;;;;15.20;74.27;66978.41;5137059;27;20010;-72
2021/07/18 09:24:45;;;;;;;;;;;;;;;15.32;75.30;66991.81;5136803;27;19923;-72
2021/07/18 09:27:14;;;;;;;;;;;;;;;15.42;76.31;67004.00;5136734;27;19923;-72
2021/07/18 09:29:42;;;;;;;;;;;;;;;15.50;76.86;67012.94;5136639;27;19928;-72
2021/07/18 09:32:09;;;;;;;;;;;;;;;15.56;75.94;67019.50;5142997;27;20339;-72
2021/07/18 09:34:37;;;;;;;;;;;;;;;15.65;73.98;67029.69;5148598;27;19923;-71
2021/07/18 09:37:10;;;;;;;;;;;;;;;15.77;73.34;67042.78;5148236;27;19923;-72
2021/07/18 09:39:37;;;;;;;;;;;;;;;15.92;69.64;67060.25;5149486;27;19924;-72
2021/07/18 09:42:04;;;;;;;;;;;;;;;16.03;71.49;67072.78;5138009;27;19946;-72
2021/07/18 09:44:40;;;;;;;;;;;;;;;16.15;68.84;67086.94;5137104;27;20309;-72
2021/07/18 09:47:07;;;;;;;;;;;;;;;16.43;62.02;67117.72;5136300;27;19923;-72
2021/07/18 09:49:34;;;;;;;;;;;;;;;16.74;59.52;67152.41;5136442;27;19923;-72
2021/07/18 09:52:15;;;;;;;;;;;;;;;17.04;59.24;67186.75;5136518;27;19929;-71
2021/07/18 09:54:42;;;;;;;;;;;;;;;17.37;53.86;67223.91;5136437;27;19935;-72
2021/07/18 09:57:09;;;;;;;;;;;;;;;17.70;52.72;67261.91;5136198;27;20380;-72
2021/07/18 09:59:36;;;;;;;;;;;;;;;18.03;50.99;67298.59;5136379;27;19927;-72
2021/07/18 10:02:04;;;;;;;;;;;;;;;18.38;51.37;67338.25;5136262;27;19924;-72
2021/07/18 10:04:31;;;;;;;;;;;;;;;18.72;50.54;67375.78;5135969;27;19931;-72
2021/07/18 10:07:05;;;;;;;;;;;;;;;19.02;51.42;67409.66;5135828;27;20396;-72
2021/07/18 10:09:34;;;;;;;;;;;;;;;19.25;48.49;67436.13;5135836;27;19980;-72
2021/07/18 10:12:00;;;;;;;;;;;;;;;19.51;49.40;67464.47;5135907;27;19930;-72
2021/07/18 10:14:27;;;;;;;;;;;;;;;19.75;51.02;67491.84;5135549;27;19931;-72
2021/07/18 10:16:55;;;;;;;;;;;;;;;19.89;50.86;67507.25;5134962;27;19923;-72
2021/07/18 10:19:22;;;;;;;;;;;;;;;20.02;51.23;67522.09;5135521;27;20435;-71
2021/07/18 10:21:50;;;;;;;;;;;;;;;20.17;48.19;67538.81;5135693;27;19946;-71
2021/07/18 10:24:17;;;;;;;;;;;;;;;20.30;47.53;67554.09;5135778;27;19923;-72
2021/07/18 10:26:45;;;;;;;;;;;;;;;20.33;50.52;67557.50;5135492;27;19970;-72
2021/07/18 10:29:12;;;;;;;;;;;;;;;20.46;47.39;67572.13;5135472;27;20408;-71
2021/07/18 10:31:40;;;;;;;;;;;;;;;20.52;47.54;67579.59;5135446;27;19976;-72
2021/07/18 10:34:08;;;;;;;;;;;;;;;20.61;47.64;67589.03;5135686;27;19930;-72
2021/07/18 10:36:35;;;;;;;;;;;;;;;20.65;50.05;67593.94;5135569;27;19923;-72
2021/07/18 10:39:01;;;;;;;;;;;;;;;20.72;49.26;67601.88;5135236;27;19927;-71
2021/07/18 10:41:40;;;;;;;;;;;;;;;20.71;49.85;67601.09;5135315;27;19923;-71
2021/07/18 10:44:12;;;;;;;;;;;;;;;20.68;52.25;67598.63;5135444;27;19976;-71
2021/07/18 10:46:53;;;;;;;;;;;;;;;20.59;55.36;67587.81;5135166;27;19923;-71
2021/07/18 10:49:40;;;;;;;;;;;;;;;20.45;57.28;67573.06;5135244;27;20022;-71
2021/07/18 10:52:12;;;;;;;;;;;;;;;20.28;59.43;67554.00;5134821;27;19924;-71
2021/07/18 10:54:42;;;;;;;;;;;;;;;20.09;60.60;67532.56;5135179;27;19968;-71
2021/07/18 10:57:20;;;;;;;;;;;;;;;19.89;61.42;67509.53;5135195;27;20337;-72
2021/07/18 10:59:48;;;;;;;;;;;;;;;19.70;63.11;67488.22;5134630;27;20418;-71
2021/07/18 11:02:16;;;;;;;;;;;;;;;19.64;58.61;67481.31;5135023;27;19931;-72
2021/07/18 11:04:44;;;;;;;;;;;;;;;19.72;51.11;67490.16;5134833;27;19930;-72
2021/07/18 11:07:24;;;;;;;;;;;;;;;19.84;49.67;67505.00;5134931;27;19924;-72
2021/07/18 11:09:51;;;;;;;;;;;;;;;20.05;46.66;67528.78;5134969;27;19930;-72
2021/07/18 11:12:22;;;;;;;;;;;;;;;20.06;52.37;67529.63;5134944;27;20014;-72
2021/07/18 11:14:50;;;;;;;;;;;;;;;20.07;51.59;67530.91;5134227;27;19929;-71
2021/07/18 11:17:25;;;;;;;;;;;;;;;20.05;54.19;67528.91;5134534;27;19924;-71
2021/07/18 11:20:01;;;;;;;;;;;;;;;20.11;50.32;67535.69;5134825;27;19927;-71
2021/07/18 11:22:47;;;;;;;;;;;;;;;20.31;44.64;67558.88;5134439;27;19945;-71
2021/07/18 11:25:34;;;;;;;;;;;;;;;20.42;47.32;67571.53;5134642;27;19959;-71
2021/07/18 11:28:00;;;;;;;;;;;;;;;20.37;51.69;67565.78;5134380;27;19977;-71
2021/07/18 11:30:39;;;;;;;;;;;;;;;20.28;54.90;67555.97;5134346;27;19923;-71
2021/07/18 11:33:20;;;;;;;;;;;;;;;20.16;54.70;67541.34;5134509;27;19959;-72
2021/07/18 11:35:51;;;;;;;;;;;;;;;20.20;48.27;67546.41;5133329;27;19924;-72
2021/07/18 11:38:19;;;;;;;;;;;;;;;20.34;45.82;67562.81;5134325;27;19923;-72
2021/07/18 11:40:45;;;;;;;;;;;;;;;20.52;45.30;67583.22;5133790;27;19934;-72
2021/07/18 11:43:12;;;;;;;;;;;;;;;20.64;45.27;67596.69;5134303;27;19923;-72
2021/07/18 11:45:40;;;;;;;;;;;;;;;20.65;49.65;67597.84;5133877;27;19935;-72
2021/07/18 11:48:07;;;;;;;;;;;;;;;20.82;44.87;67616.97;5134340;27;19970;-72
2021/07/18 11:50:33;;;;;;;;;;;;;;;20.98;45.03;67634.84;5133793;27;19923;-72
2021/07/18 11:53:00;;;;;;;;;;;;;;;20.99;48.26;67636.38;5133746;27;19923;-72
2021/07/18 11:55:27;;;;;;;;;;;;;;;21.02;47.30;67638.91;5133567;27;19923;-71
2021/07/18 11:57:55;;;;;;;;;;;;;;;20.94;50.12;67630.06;5133315;27;20219;-71
2021/07/18 12:00:22;;;;;;;;;;;;;;;20.85;52.24;67620.38;5134048;27;19980;-72
2021/07/18 12:02:52;;;;;;;;;;;;;;;20.83;49.43;67617.81;5133737;27;20006;-72
2021/07/18 12:05:19;;;;;;;;;;;;;;;20.93;45.82;67628.59;5134097;27;19923;-71
2021/07/18 12:07:46;;;;;;;;;;;;;;;21.03;44.16;67640.16;5133377;27;20332;-72
2021/07/18 12:10:18;;;;;;;;;;;;;;;21.19;44.95;67658.88;5133964;27;19961;-72
2021/07/18 12:12:47;;;;;;;;;;;;;;;21.38;41.49;67679.91;5133337;27;19929;-71
2021/07/18 12:15:13;;;;;;;;;;;;;;;21.63;40.01;67708.94;5133483;27;20502;-72
2021/07/18 12:17:40;;;;;;;;;;;;;;;21.92;38.25;67741.47;5133438;27;19966;-72
2021/07/18 12:20:09;;;;;;;;;;;;;;;22.02;40.80;67753.34;5133824;28;20284;-72
2021/07/18 12:22:36;;;;;;;;;;;;;;;22.17;40.65;67770.22;5133508;28;19930;-72
2021/07/18 12:25:04;;;;;;;;;;;;;;;22.18;43.60;67771.72;5133729;28;19950;-72
2021/07/18 12:27:31;;;;;;;;;;;;;;;22.11;46.11;67763.84;5133447;28;19930;-71
2021/07/18 12:30:00;;;;;;;;;;;;;;;22.06;46.48;67758.25;5133185;28;19930;-71
2021/07/18 12:32:28;;;;;;;;;;;;;;;22.16;41.90;67770.59;5133067;28;20286;-72
2021/07/18 12:34:55;;;;;;;;;;;;;;;22.09;46.56;67761.53;5133394;28;19953;-72
2021/07/18 12:37:24;;;;;;;;;;;;;;;22.01;47.85;67753.25;5133240;28;20411;-71
2021/07/18 12:39:53;;;;;;;;;;;;;;;22.07;43.83;67759.47;5135556;27;19930;-71
2021/07/18 12:42:21;;;;;;;;;;;;;;;21.98;47.89;67749.91;5137768;27;20315;-72
2021/07/18 12:44:49;;;;;;;;;;;;;;;21.81;51.61;67730.78;5137258;27;20352;-72
2021/07/18 12:47:15;;;;;;;;;;;;;;;21.65;52.85;67712.38;5137425;27;19924;-71
2021/07/18 12:49:42;;;;;;;;;;;;;;;21.45;54.64;67689.28;5137029;27;19962;-71
2021/07/18 12:52:08;;;;;;;;;;;;;;;21.25;56.76;67667.06;5137328;27;19923;-71
2021/07/18 12:54:38;;;;;;;;;;;;;;;21.04;58.28;67642.91;5137477;27;19982;-72
2021/07/18 12:57:05;;;;;;;;;;;;;;;20.84;57.61;67620.25;5137554;27;19930;-71
2021/07/18 12:59:32;;;;;;;;;;;;;;;20.79;50.48;67614.72;5137195;27;20381;-72
2021/07/18 13:02:12;;;;;;;;;;;;;;;20.66;53.88;67599.81;5137194;27;20393;-72
2021/07/18 13:04:38;;;;;;;;;;;;;;;20.55;54.79;67587.16;5136845;27;20444;-71
2021/07/18 13:07:09;;;;;;;;;;;;;;;20.45;54.07;67576.66;5136984;27;20403;-71
2021/07/18 13:09:37;;;;;;;;;;;;;;;20.33;55.04;67562.47;5136757;27;20388;-71
2021/07/18 13:12:04;;;;;;;;;;;;;;;20.18;55.70;67544.88;5136788;27;19927;-71
2021/07/18 13:14:34;;;;;;;;;;;;;;;20.21;49.38;67548.50;5136591;27;20293;-71
2021/07/18 13:17:05;;;;;;;;;;;;;;;20.42;42.47;67572.50;5136699;27;20404;-73
2021/07/18 13:19:32;;;;;;;;;;;;;;;20.63;39.52;67595.69;5136474;27;19966;-72
2021/07/18 13:21:59;;;;;;;;;;;;;;;20.80;40.13;67614.94;5136639;27;20377;-72
2021/07/18 13:24:33;;;;;;;;;;;;;;;20.92;39.77;67628.31;5136915;27;19923;-72
2021/07/18 13:27:24;;;;;;;;;;;;;;;20.91;44.71;67627.28;5137049;27;19923;-72